Time;durP1;ratioP1;P1;durP2;ratioP2;P2;SDS_P1;SDS_P2;PMS_P1;PMS_P2;Temp;Humidity;BMP_temperature;BMP_pressure;BME280_temperature;BME280_humidity;BME280_pressure;Samples;Min_cycle;Max_cycle;Signal;HPM_P1;HPM_P2
2023/02/07 00:00:42;;;;;;;;;;;;;;;1.19;59.12;101929.06;1090852;46;19939;-79
2023/02/07 00:01:46;;;;;;;;;;;;;;;1.17;59.50;101933.53;1088155;54;19926;-80
2023/02/07 00:02:48;;;;;;;;;;;;;;;1.16;59.19;101923.91;1092929;39;20538;-80
2023/02/07 00:03:51;;;;;;;;;;;;;;;1.13;59.76;101938.91;1088347;54;19942;-79
2023/02/07 00:04:52;;;;;;;;;;;;;;;1.05;59.85;101934.69;1091107;46;19942;-79
2023/02/07 00:05:56;;;;;;;;;;;;;;;1.02;59.71;101933.88;1088340;54;19923;-80
2023/02/07 00:06:57;;;;;;;;;;;;;;;1.00;59.90;101938.31;1093919;39;20521;-79
2023/02/07 00:08:01;;;;;;;;;;;;;;;0.96;60.20;101947.22;1089475;46;19946;-79
2023/02/07 00:09:05;;;;;;;;;;;;;;;1.01;60.48;101940.06;1088190;47;19938;-80
2023/02/07 00:10:07;;;;;;;;;;;;;;;1.00;60.52;101923.41;1087984;54;19942;-81
2023/02/07 00:11:15;;;;;;;;;;;;;;;0.96;60.38;101927.00;1088045;54;19966;-79
2023/02/07 00:12:16;;;;;;;;;;;;;;;0.87;60.84;101933.38;1088045;54;19948;-79
2023/02/07 00:13:20;;;;;;;;;;;;;;;0.89;60.93;101949.13;1087874;54;19970;-79
2023/02/07 00:14:21;;;;;;;;;;;;;;;0.90;61.06;101942.94;1088029;54;19934;-80
2023/02/07 00:15:25;;;;;;;;;;;;;;;0.93;60.76;101937.63;1087992;54;20580;-79
2023/02/07 00:16:26;;;;;;;;;;;;;;;0.97;61.03;101933.16;1088509;46;19934;-79
2023/02/07 00:17:30;;;;;;;;;;;;;;;0.98;61.13;101927.81;1089555;39;20514;-80
2023/02/07 00:18:32;;;;;;;;;;;;;;;1.02;60.99;101925.97;1086985;54;19938;-81
2023/02/07 00:19:35;;;;;;;;;;;;;;;0.94;61.06;101934.09;1087154;54;19962;-81
2023/02/07 00:20:36;;;;;;;;;;;;;;;0.96;61.14;101919.09;1087105;54;19950;-80
2023/02/07 00:21:40;;;;;;;;;;;;;;;0.98;60.89;101932.25;1087081;54;19975;-81
2023/02/07 00:22:41;;;;;;;;;;;;;;;0.98;61.27;101922.56;1087102;54;19945;-80
2023/02/07 00:23:45;;;;;;;;;;;;;;;0.99;61.16;101921.66;1087048;54;19930;-81
2023/02/07 00:24:46;;;;;;;;;;;;;;;1.03;61.09;101918.06;1087066;54;19939;-81
2023/02/07 00:25:51;;;;;;;;;;;;;;;0.91;61.27;101921.84;1087327;54;20480;-81
2023/02/07 00:26:57;;;;;;;;;;;;;;;0.89;61.49;101921.03;1087305;54;19953;-81
2023/02/07 00:27:58;;;;;;;;;;;;;;;0.87;61.50;101919.31;1087284;54;19996;-79
2023/02/07 00:29:03;;;;;;;;;;;;;;;0.90;61.75;101927.16;1087255;54;19990;-81
2023/02/07 00:30:05;;;;;;;;;;;;;;;0.85;61.91;101913.25;1087231;54;19950;-80
2023/02/07 00:31:10;;;;;;;;;;;;;;;0.81;61.80;101914.19;1087288;54;19990;-80
2023/02/07 00:32:11;;;;;;;;;;;;;;;0.73;62.13;101923.16;1090280;39;20397;-81
2023/02/07 00:33:15;;;;;;;;;;;;;;;0.76;62.22;101923.06;1087022;54;19939;-81
2023/02/07 00:34:16;;;;;;;;;;;;;;;0.72;62.39;101923.16;1086871;54;19939;-81
2023/02/07 00:35:20;;;;;;;;;;;;;;;0.80;62.20;101925.63;1086916;54;19951;-81
2023/02/07 00:36:22;;;;;;;;;;;;;;;0.77;62.15;101927.44;1086616;54;20425;-81
2023/02/07 00:37:26;;;;;;;;;;;;;;;0.76;62.26;101930.97;1086915;54;19946;-81
2023/02/07 00:38:27;;;;;;;;;;;;;;;0.77;62.54;101937.97;1086878;54;19980;-80
2023/02/07 00:39:31;;;;;;;;;;;;;;;0.73;62.37;101938.06;1086793;54;20000;-80
2023/02/07 00:40:32;;;;;;;;;;;;;;;0.68;62.88;101939.94;1087018;54;19939;-79
2023/02/07 00:41:36;;;;;;;;;;;;;;;0.64;63.02;101930.38;1087166;54;19962;-81
2023/02/07 00:42:40;;;;;;;;;;;;;;;0.61;63.06;101941.84;1087143;54;19962;-81
2023/02/07 00:43:44;;;;;;;;;;;;;;;0.58;63.21;101949.81;1087148;54;20435;-81
2023/02/07 00:44:45;;;;;;;;;;;;;;;0.61;62.86;101949.75;1087226;54;19970;-81
2023/02/07 00:45:49;;;;;;;;;;;;;;;0.60;63.04;101941.00;1087530;54;19939;-80
2023/02/07 00:46:50;;;;;;;;;;;;;;;0.62;63.05;101939.16;1086517;54;19947;-79
2023/02/07 00:47:54;;;;;;;;;;;;;;;0.59;63.02;101933.13;1086517;54;19945;-79
2023/02/07 00:48:55;;;;;;;;;;;;;;;0.60;63.56;101935.72;1086240;54;19942;-80
2023/02/07 00:49:59;;;;;;;;;;;;;;;0.64;63.23;101926.00;1086367;54;20406;-81
2023/02/07 00:51:00;;;;;;;;;;;;;;;0.52;63.49;101928.91;1086281;54;20025;-80
2023/02/07 00:52:04;;;;;;;;;;;;;;;0.57;63.33;101929.66;1086370;54;19958;-81
2023/02/07 00:53:05;;;;;;;;;;;;;;;0.51;63.53;101935.06;1086452;54;19946;-81
2023/02/07 00:54:09;;;;;;;;;;;;;;;0.57;63.51;101932.28;1086175;54;19966;-80
2023/02/07 00:55:10;;;;;;;;;;;;;;;0.58;63.57;101934.00;1086244;54;19947;-81
2023/02/07 00:56:14;;;;;;;;;;;;;;;0.55;63.34;101937.59;1086591;54;19943;-80
2023/02/07 00:57:15;;;;;;;;;;;;;;;0.51;63.70;101935.06;1086949;54;19947;-79
2023/02/07 00:58:22;;;;;;;;;;;;;;;0.44;63.76;101932.56;1095049;39;20561;-80
2023/02/07 00:59:25;;;;;;;;;;;;;;;0.45;63.93;101926.41;1087966;54;20680;-79
2023/02/07 01:00:26;;;;;;;;;;;;;;;0.35;63.77;101932.75;1087976;54;19942;-79
2023/02/07 01:01:30;;;;;;;;;;;;;;;0.40;63.68;101930.03;1087959;54;19926;-79
2023/02/07 01:02:31;;;;;;;;;;;;;;;0.43;63.61;101930.84;1087938;54;20632;-79
2023/02/07 01:03:36;;;;;;;;;;;;;;;0.42;64.02;101939.63;1087952;54;19943;-80
2023/02/07 01:04:39;;;;;;;;;;;;;;;0.38;63.77;101929.19;1087903;54;19958;-79
2023/02/07 01:05:42;;;;;;;;;;;;;;;0.40;63.90;101930.88;1087936;54;19946;-79
2023/02/07 01:06:43;;;;;;;;;;;;;;;0.36;63.87;101950.28;1088793;47;19923;-79
2023/02/07 01:07:47;;;;;;;;;;;;;;;0.30;64.07;101951.28;1087939;54;19990;-79
2023/02/07 01:08:48;;;;;;;;;;;;;;;0.32;63.89;101956.50;1087853;54;19949;-80
2023/02/07 01:09:52;;;;;;;;;;;;;;;0.37;63.75;101948.50;1088044;47;19990;-80
2023/02/07 01:10:53;;;;;;;;;;;;;;;0.37;63.94;101949.41;1087886;54;19945;-79
2023/02/07 01:11:57;;;;;;;;;;;;;;;0.36;63.65;101941.50;1087935;54;19947;-79
2023/02/07 01:12:58;;;;;;;;;;;;;;;0.29;64.09;101940.75;1087795;54;19927;-79
2023/02/07 01:14:05;;;;;;;;;;;;;;;0.28;63.96;101947.81;1087888;54;19982;-80
2023/02/07 01:15:06;;;;;;;;;;;;;;;0.31;63.95;101949.50;1087933;54;19966;-80
2023/02/07 01:16:18;;;;;;;;;;;;;;;0.37;63.97;101946.75;1087971;54;19938;-80
2023/02/07 01:17:21;;;;;;;;;;;;;;;0.32;64.02;101945.13;1087956;54;19942;-80
2023/02/07 01:18:22;;;;;;;;;;;;;;;0.27;64.00;101946.06;1087824;54;19942;-80
2023/02/07 01:19:26;;;;;;;;;;;;;;;0.28;64.13;101945.19;1087999;54;19937;-79
2023/02/07 01:20:28;;;;;;;;;;;;;;;0.23;64.08;101940.91;1087973;54;19949;-80
2023/02/07 01:21:31;;;;;;;;;;;;;;;0.15;64.12;101928.78;1088001;54;20923;-80
2023/02/07 01:22:33;;;;;;;;;;;;;;;0.23;64.12;101946.16;1088020;54;19943;-81
2023/02/07 01:23:36;;;;;;;;;;;;;;;0.25;64.31;101939.97;1088069;54;19943;-79
2023/02/07 01:24:37;;;;;;;;;;;;;;;0.24;64.05;101932.97;1088204;54;19949;-80
2023/02/07 01:25:42;;;;;;;;;;;;;;;0.19;63.90;101942.75;1088100;54;19934;-80
2023/02/07 01:26:55;;;;;;;;;;;;;;;0.21;63.66;101935.69;1088127;54;19942;-80
2023/02/07 01:27:57;;;;;;;;;;;;;;;0.19;63.95;101944.50;1088094;54;19934;-79
2023/02/07 01:29:01;;;;;;;;;;;;;;;0.24;63.85;101945.28;1090851;47;19938;-80
2023/02/07 01:30:05;;;;;;;;;;;;;;;0.16;63.86;101940.16;1088362;54;19942;-80
2023/02/07 01:31:10;;;;;;;;;;;;;;;0.06;63.92;101944.75;1088394;54;19986;-80
2023/02/07 01:32:11;;;;;;;;;;;;;;;0.01;64.33;101951.00;1088352;54;19927;-80
2023/02/07 01:33:15;;;;;;;;;;;;;;;0.06;64.47;101955.28;1088416;54;19942;-80
2023/02/07 01:34:16;;;;;;;;;;;;;;;0.08;64.22;101948.22;1088852;39;20542;-80
2023/02/07 01:35:22;;;;;;;;;;;;;;;0.06;64.10;101949.13;1088508;54;19926;-81
2023/02/07 01:36:24;;;;;;;;;;;;;;;-0.02;64.22;101944.91;1088462;54;19927;-82
2023/02/07 01:37:34;;;;;;;;;;;;;;;0.01;64.54;101936.06;1089518;46;19938;-79
2023/02/07 01:38:36;;;;;;;;;;;;;;;0.08;64.23;101935.06;1088526;54;19926;-80
2023/02/07 01:39:51;;;;;;;;;;;;;;;0.10;64.04;101935.03;1089655;46;19927;-80
2023/02/07 01:40:52;;;;;;;;;;;;;;;0.14;64.18;101932.31;1089478;46;19938;-82
2023/02/07 01:42:00;;;;;;;;;;;;;;;0.19;63.96;101926.09;1088564;54;19927;-79
2023/02/07 01:43:01;;;;;;;;;;;;;;;0.13;63.82;101930.56;1088518;54;19927;-80
2023/02/07 01:44:08;;;;;;;;;;;;;;;0.13;63.99;101924.47;1090695;46;19954;-81
2023/02/07 01:45:21;;;;;;;;;;;;;;;0.11;63.79;101926.25;1088521;54;19943;-81
2023/02/07 01:46:25;;;;;;;;;;;;;;;0.17;63.72;101930.53;1088481;54;19949;-80
2023/02/07 01:47:29;;;;;;;;;;;;;;;0.21;63.72;101932.16;1088516;54;19942;-80
2023/02/07 01:48:35;;;;;;;;;;;;;;;0.27;63.54;101932.06;1088530;54;19950;-80
2023/02/07 01:49:36;;;;;;;;;;;;;;;0.25;63.43;101934.72;1088529;54;19942;-81
2023/02/07 01:50:47;;;;;;;;;;;;;;;0.17;63.62;101941.03;1090015;46;20019;-81
2023/02/07 01:51:50;;;;;;;;;;;;;;;0.10;63.52;101929.78;1088507;54;19939;-80
2023/02/07 01:52:58;;;;;;;;;;;;;;;0.04;64.01;101927.28;1088480;54;19934;-82
2023/02/07 01:54:01;;;;;;;;;;;;;;;0.04;64.17;101936.03;1088432;54;19927;-79
2023/02/07 01:55:08;;;;;;;;;;;;;;;0.03;63.96;101944.81;1088104;54;19938;-80
2023/02/07 01:56:11;;;;;;;;;;;;;;;0.10;63.83;101946.41;1088551;46;19965;-82
2023/02/07 01:57:19;;;;;;;;;;;;;;;0.14;63.65;101942.84;1088209;54;19950;-80
2023/02/07 01:58:21;;;;;;;;;;;;;;;0.18;63.39;101950.66;1088274;54;19947;-81
2023/02/07 01:59:42;;;;;;;;;;;;;;;0.23;63.77;101946.16;1089112;46;19989;-80
2023/02/07 02:00:47;;;;;;;;;;;;;;;0.18;63.16;101954.16;1088300;54;19982;-81
2023/02/07 02:01:55;;;;;;;;;;;;;;;0.07;63.36;101951.75;1088457;54;19933;-81
2023/02/07 02:02:56;;;;;;;;;;;;;;;-0.05;63.19;101950.19;1088342;54;19943;-81
2023/02/07 02:04:00;;;;;;;;;;;;;;;-0.05;63.67;101957.25;1088075;54;19939;-80
2023/02/07 02:05:02;;;;;;;;;;;;;;;-0.11;63.90;101957.38;1090530;46;19943;-80
2023/02/07 02:06:06;;;;;;;;;;;;;;;-0.10;63.83;101959.09;1088047;54;20029;-79
2023/02/07 02:07:09;;;;;;;;;;;;;;;-0.10;64.29;101954.69;1088878;46;19954;-80
2023/02/07 02:08:13;;;;;;;;;;;;;;;-0.10;63.80;101953.84;1088108;54;19953;-81
2023/02/07 02:09:15;;;;;;;;;;;;;;;-0.17;63.92;101955.72;1087816;54;19942;-79
2023/02/07 02:10:22;;;;;;;;;;;;;;;-0.23;64.12;101955.81;1088346;54;19938;-82
2023/02/07 02:11:39;;;;;;;;;;;;;;;-0.14;64.17;101958.28;1089537;39;20361;-80
2023/02/07 02:12:51;;;;;;;;;;;;;;;-0.08;64.03;101960.81;1087786;54;19973;-80
2023/02/07 02:13:58;;;;;;;;;;;;;;;-0.13;64.19;101953.91;1088000;54;19926;-80
2023/02/07 02:15:11;;;;;;;;;;;;;;;-0.12;64.42;101953.00;1087816;54;19946;-81
2023/02/07 02:16:19;;;;;;;;;;;;;;;-0.06;64.06;101955.50;1088107;54;19946;-80
2023/02/07 02:17:28;;;;;;;;;;;;;;;-0.01;63.92;101953.66;1087977;54;19949;-80
2023/02/07 02:18:45;;;;;;;;;;;;;;;0.03;63.77;101954.47;1087926;54;20786;-83
2023/02/07 02:20:07;;;;;;;;;;;;;;;0.04;63.36;101949.16;1087794;54;19950;-80
2023/02/07 02:21:28;;;;;;;;;;;;;;;-0.09;63.37;101948.56;1087727;54;20544;-81
2023/02/07 02:22:45;;;;;;;;;;;;;;;-0.17;63.56;101951.31;1088018;54;20015;-80
2023/02/07 02:23:57;;;;;;;;;;;;;;;-0.14;63.75;101954.78;1086618;54;20037;-78
2023/02/07 02:25:27;;;;;;;;;;;;;;;-0.16;63.59;101945.16;1089261;46;20002;-79
2023/02/07 02:26:42;;;;;;;;;;;;;;;-0.17;63.64;101953.94;1086655;54;19970;-79
2023/02/07 02:28:03;;;;;;;;;;;;;;;-0.17;63.72;101946.06;1086908;54;19950;-79
2023/02/07 02:29:22;;;;;;;;;;;;;;;-0.12;63.83;101955.63;1086598;54;20478;-79
2023/02/07 02:30:35;;;;;;;;;;;;;;;-0.08;63.92;101950.28;1086405;54;19946;-78
2023/02/07 02:31:58;;;;;;;;;;;;;;;-0.07;63.72;101964.28;1086631;54;19939;-79
2023/02/07 02:33:19;;;;;;;;;;;;;;;-0.13;63.64;101951.28;1086788;54;19958;-79
2023/02/07 02:34:23;;;;;;;;;;;;;;;-0.23;63.80;101958.44;1086762;54;19946;-80
2023/02/07 02:35:32;;;;;;;;;;;;;;;-0.25;63.86;101953.22;1086797;54;19950;-80
2023/02/07 02:36:40;;;;;;;;;;;;;;;-0.28;64.13;101950.63;1086800;54;19953;-80
2023/02/07 02:37:46;;;;;;;;;;;;;;;-0.34;64.44;101954.28;1086795;54;19951;-79
2023/02/07 02:38:52;;;;;;;;;;;;;;;-0.30;64.48;101947.19;1086325;54;19946;-79
2023/02/07 02:39:59;;;;;;;;;;;;;;;-0.28;64.62;101945.38;1086582;54;19938;-78
2023/02/07 02:41:02;;;;;;;;;;;;;;;-0.29;64.01;101948.06;1087258;54;19951;-79
2023/02/07 02:42:11;;;;;;;;;;;;;;;-0.35;63.96;101949.03;1087379;54;19942;-80
2023/02/07 02:43:13;;;;;;;;;;;;;;;-0.39;64.20;101957.88;1087436;54;19943;-79
2023/02/07 02:44:20;;;;;;;;;;;;;;;-0.42;64.33;101957.94;1087737;54;19951;-81
2023/02/07 02:45:24;;;;;;;;;;;;;;;-0.39;64.19;101971.03;1087548;54;19985;-81
2023/02/07 02:46:30;;;;;;;;;;;;;;;-0.44;64.32;101970.22;1086913;54;19953;-79
2023/02/07 02:47:32;;;;;;;;;;;;;;;-0.48;64.45;101966.78;1086851;54;19950;-79
2023/02/07 02:48:39;;;;;;;;;;;;;;;-0.47;64.41;101982.50;1086525;54;19954;-80
2023/02/07 02:49:42;;;;;;;;;;;;;;;-0.53;64.47;101971.25;1087417;54;20064;-81
2023/02/07 02:50:47;;;;;;;;;;;;;;;-0.52;64.60;101979.09;1087417;54;19943;-79
2023/02/07 02:51:49;;;;;;;;;;;;;;;-0.50;64.61;101985.22;1087470;54;19946;-80
2023/02/07 02:52:53;;;;;;;;;;;;;;;-0.54;64.55;101988.78;1087115;54;19946;-81
2023/02/07 02:53:55;;;;;;;;;;;;;;;-0.56;64.57;101987.06;1087000;54;19958;-80
2023/02/07 02:54:59;;;;;;;;;;;;;;;-0.58;64.62;101988.84;1086960;54;19943;-79
2023/02/07 02:58:39;;;;;;;;;;;;;;;-0.63;64.88;101983.66;1076730;54;20009;31
2023/02/07 03:01:06;;;;;;;;;;;;;;;-0.55;64.31;101984.41;1077152;54;20854;-85
2023/02/07 03:08:11;;;;;;;;;;;;;;;-0.70;64.57;102005.69;1089188;54;19930;-84
2023/02/07 03:10:28;;;;;;;;;;;;;;;-0.64;64.57;102006.47;1088370;54;19930;-85
2023/02/07 03:12:41;;;;;;;;;;;;;;;-0.63;64.32;102000.31;1076590;54;20028;31
2023/02/07 03:21:41;;;;;;;;;;;;;;;-0.74;64.77;101988.22;1076562;54;19946;31
2023/02/07 03:22:58;;;;;;;;;;;;;;;-0.83;65.10;101989.25;1076737;54;19946;31
2023/02/07 03:27:46;;;;;;;;;;;;;;;-0.88;65.23;101981.44;1088391;54;19939;-84
2023/02/07 03:28:49;;;;;;;;;;;;;;;-0.90;65.37;101980.59;1088700;54;19950;-85
2023/02/07 03:30:00;;;;;;;;;;;;;;;-0.91;65.06;101984.09;1088566;54;20592;-83
2023/02/07 03:31:03;;;;;;;;;;;;;;;-0.97;65.35;101979.81;1088572;54;19934;-84
2023/02/07 03:32:11;;;;;;;;;;;;;;;-0.93;65.30;101982.41;1088683;54;19979;-84
2023/02/07 03:37:44;;;;;;;;;;;;;;;-1.03;65.28;101974.66;1076502;54;19953;31
2023/02/07 03:38:54;;;;;;;;;;;;;;;-1.06;65.71;101976.47;1076863;54;19993;31
2023/02/07 03:48:37;;;;;;;;;;;;;;;-1.04;65.45;101979.94;1078847;54;21200;31
2023/02/07 03:49:46;;;;;;;;;;;;;;;-1.04;65.56;101978.19;1076820;54;19958;31
2023/02/07 04:07:47;;;;;;;;;;;;;;;-1.17;65.90;101969.63;1076885;54;20697;31
2023/02/07 04:08:57;;;;;;;;;;;;;;;-1.12;65.63;101978.28;1090386;46;20802;31
2023/02/07 04:11:25;;;;;;;;;;;;;;;-1.15;65.53;101972.22;1076503;54;19931;31
2023/02/07 04:19:10;;;;;;;;;;;;;;;-1.10;65.82;101971.25;1076233;54;19947;31
2023/02/07 04:21:30;;;;;;;;;;;;;;;-0.99;65.54;101968.47;1076544;54;20813;31
2023/02/07 04:41:03;;;;;;;;;;;;;;;;;;;;;
2023/02/07 05:01:08;;;;;;;;;;;;;;;-1.50;66.32;101977.06;1074641;54;19951;31
2023/02/07 05:08:39;;;;;;;;;;;;;;;-1.65;66.72;101958.91;1076946;54;20835;31
2023/02/07 05:10:08;;;;;;;;;;;;;;;-1.59;66.60;101964.06;1077002;54;19972;31
2023/02/07 05:13:59;;;;;;;;;;;;;;;-1.55;66.54;101968.38;1075574;54;20837;31
2023/02/07 05:16:33;;;;;;;;;;;;;;;-1.62;66.52;101971.97;1077334;54;19946;31
2023/02/07 05:59:22;;;;;;;;;;;;;;;-1.77;65.81;101978.28;1077092;54;20809;31
2023/02/07 08:44:31;;;;;;;;;;;;;;;-1.45;60.71;102074.06;1087738;54;19938;-83
2023/02/07 08:52:51;;;;;;;;;;;;;;;-1.46;59.58;102082.81;1087859;54;19946;-83
2023/02/07 08:59:26;;;;;;;;;;;;;;;-1.24;59.03;102072.09;1087312;54;21241;-79
2023/02/07 09:00:30;;;;;;;;;;;;;;;-1.23;59.08;102084.31;1087902;54;19945;-78
2023/02/07 09:01:31;;;;;;;;;;;;;;;-1.20;58.92;102086.91;1087958;54;19946;-79
2023/02/07 09:02:35;;;;;;;;;;;;;;;-1.23;58.98;102082.59;1087899;54;19945;-80
2023/02/07 09:03:39;;;;;;;;;;;;;;;-1.17;58.68;102084.22;1087739;54;19998;-80
2023/02/07 09:04:42;;;;;;;;;;;;;;;-1.16;58.75;102085.97;1087751;54;19958;-82
2023/02/07 09:05:45;;;;;;;;;;;;;;;-1.15;58.57;102085.09;1087972;54;19961;-83
2023/02/07 09:06:49;;;;;;;;;;;;;;;-1.10;58.34;102078.91;1087712;54;19953;-80
2023/02/07 09:08:02;;;;;;;;;;;;;;;-1.08;58.18;102083.25;1087891;54;19966;-80
2023/02/07 09:09:06;;;;;;;;;;;;;;;-0.97;58.07;102081.38;1087694;54;20322;-80
2023/02/07 09:10:11;;;;;;;;;;;;;;;-0.93;57.78;102077.78;1088171;39;20326;-81
2023/02/07 09:11:14;;;;;;;;;;;;;;;-0.80;57.79;102073.22;1087528;54;19967;-79
2023/02/07 09:12:18;;;;;;;;;;;;;;;-0.76;57.12;102079.34;1087808;54;20213;-80
2023/02/07 09:13:22;;;;;;;;;;;;;;;-0.72;57.31;102075.75;1087675;54;20512;-79
2023/02/07 09:14:26;;;;;;;;;;;;;;;-0.61;57.40;102070.38;1087557;54;19945;-80
2023/02/07 09:15:27;;;;;;;;;;;;;;;-0.51;56.73;102070.19;1087709;54;19946;-82
2023/02/07 09:16:32;;;;;;;;;;;;;;;-0.39;56.52;102076.16;1087538;54;19962;-80
2023/02/07 09:17:36;;;;;;;;;;;;;;;-0.28;56.30;102076.81;1088826;46;19946;-82
2023/02/07 09:18:40;;;;;;;;;;;;;;;-0.04;56.18;102069.44;1087465;54;20003;-80
2023/02/07 09:19:43;;;;;;;;;;;;;;;0.22;56.12;102063.69;1087710;54;19942;-78
2023/02/07 09:20:47;;;;;;;;;;;;;;;0.42;55.28;102055.41;1087248;54;19947;-77
2023/02/07 09:21:51;;;;;;;;;;;;;;;0.58;54.55;102057.72;1087707;54;19957;-79
2023/02/07 09:24:14;;;;;;;;;;;;;;;0.73;54.03;102051.28;1087401;54;19942;-82
2023/02/07 09:25:15;;;;;;;;;;;;;;;0.81;53.47;102054.63;1087636;54;19938;-80
2023/02/07 09:26:20;;;;;;;;;;;;;;;0.64;53.20;102054.09;1088468;39;20313;-82
2023/02/07 09:27:23;;;;;;;;;;;;;;;0.59;53.05;102054.19;1087582;54;19943;-81
2023/02/07 09:28:27;;;;;;;;;;;;;;;0.57;53.52;102056.00;1087844;54;19950;-82
2023/02/07 09:29:31;;;;;;;;;;;;;;;0.67;53.63;102057.53;1088188;54;19953;-83
2023/02/07 09:30:32;;;;;;;;;;;;;;;0.85;53.41;102048.41;1088110;54;19939;-82
2023/02/07 09:31:36;;;;;;;;;;;;;;;1.05;52.99;102047.94;1088076;39;20348;-82
2023/02/07 09:32:40;;;;;;;;;;;;;;;1.16;52.62;102049.47;1087749;54;19939;-82
2023/02/07 09:33:44;;;;;;;;;;;;;;;1.35;52.28;102044.66;1087853;46;19981;-83
2023/02/07 09:34:53;;;;;;;;;;;;;;;1.31;52.05;102049.16;1087530;54;19946;-82
2023/02/07 09:35:57;;;;;;;;;;;;;;;1.19;51.64;102045.00;1087786;54;19958;-81
2023/02/07 09:37:02;;;;;;;;;;;;;;;1.30;51.73;102042.13;1087892;54;19935;-81
2023/02/07 09:38:04;;;;;;;;;;;;;;;1.34;51.40;102043.78;1087869;54;19943;-81
2023/02/07 09:39:08;;;;;;;;;;;;;;;1.49;51.46;102041.69;1088852;31;20421;-80
2023/02/07 09:40:18;;;;;;;;;;;;;;;1.27;51.35;102041.34;1088259;54;19950;-81
2023/02/07 09:41:23;;;;;;;;;;;;;;;1.20;51.37;102045.88;1088453;54;19945;-81
2023/02/07 09:42:32;;;;;;;;;;;;;;;1.27;51.53;102047.47;1088429;54;19950;-80
2023/02/07 09:43:40;;;;;;;;;;;;;;;1.34;51.44;102043.78;1088482;54;19943;-79
2023/02/07 09:44:49;;;;;;;;;;;;;;;1.43;51.27;102044.47;1088279;54;19950;-80
2023/02/07 09:45:55;;;;;;;;;;;;;;;1.56;51.03;102046.75;1088448;54;19947;-82
2023/02/07 09:47:02;;;;;;;;;;;;;;;1.70;50.73;102040.28;1089401;46;19946;-80
2023/02/07 09:48:06;;;;;;;;;;;;;;;1.69;50.66;102044.72;1088385;54;19968;-80
2023/02/07 09:49:16;;;;;;;;;;;;;;;1.45;50.46;102045.28;1091017;46;19943;-80
2023/02/07 09:50:24;;;;;;;;;;;;;;;1.47;51.30;102054.03;1090719;46;19942;-81
2023/02/07 09:51:26;;;;;;;;;;;;;;;1.58;51.10;102051.13;1088469;54;19942;-80
2023/02/07 10:00:21;;;;;;;;;;;;;;;1.76;49.89;102048.03;1087433;54;19931;-79
2023/02/07 10:01:26;;;;;;;;;;;;;;;1.62;50.07;102061.56;1090332;46;19969;-79
2023/02/07 10:02:33;;;;;;;;;;;;;;;1.71;50.55;102069.25;1089806;46;19949;-80
2023/02/07 10:03:39;;;;;;;;;;;;;;;1.79;50.32;102068.22;1088223;54;19946;-79
2023/02/07 10:04:46;;;;;;;;;;;;;;;1.83;49.92;102065.47;1088283;54;19943;-80
2023/02/07 10:05:53;;;;;;;;;;;;;;;2.00;49.77;102059.72;1088171;54;20016;-79
2023/02/07 10:06:58;;;;;;;;;;;;;;;1.94;49.83;102064.28;1088256;54;19922;-79
2023/02/07 10:08:02;;;;;;;;;;;;;;;1.88;50.15;102067.97;1090101;46;19954;-78
2023/02/07 10:09:05;;;;;;;;;;;;;;;1.99;50.36;102067.69;1088217;54;19939;-77
2023/02/07 10:10:15;;;;;;;;;;;;;;;2.08;49.84;102063.97;1088239;54;19962;-80
2023/02/07 10:11:23;;;;;;;;;;;;;;;2.10;49.38;102068.28;1091731;39;20896;-80
2023/02/07 10:12:51;;;;;;;;;;;;;;;2.34;49.83;102072.03;1088854;46;19938;-81
2023/02/07 10:14:03;;;;;;;;;;;;;;;2.18;48.83;102068.94;1088260;54;19958;-80
2023/02/07 10:15:21;;;;;;;;;;;;;;;2.23;49.43;102071.47;1088159;54;19957;-80
2023/02/07 10:16:27;;;;;;;;;;;;;;;2.21;49.23;102077.69;1088181;54;19939;-78
2023/02/07 10:17:37;;;;;;;;;;;;;;;2.26;49.35;102076.66;1088488;46;19927;-81
2023/02/07 10:18:46;;;;;;;;;;;;;;;2.51;49.04;102070.69;1088240;54;19927;-81
2023/02/07 10:19:55;;;;;;;;;;;;;;;2.52;48.73;102069.78;1088746;39;20582;-80
2023/02/07 10:21:05;;;;;;;;;;;;;;;2.32;48.89;102071.22;1088207;54;19958;-81
2023/02/07 10:22:16;;;;;;;;;;;;;;;2.42;48.96;102071.81;1088219;54;19942;-81
2023/02/07 10:23:32;;;;;;;;;;;;;;;2.63;48.96;102065.06;1088290;54;20638;-80
2023/02/07 10:24:44;;;;;;;;;;;;;;;3.02;48.27;102071.88;1088225;54;19942;-81
2023/02/07 10:25:54;;;;;;;;;;;;;;;2.78;47.62;102065.53;1088206;54;19946;-82
2023/02/07 10:27:01;;;;;;;;;;;;;;;2.65;47.86;102068.50;1088223;47;19943;-82
2023/02/07 10:28:17;;;;;;;;;;;;;;;2.71;47.88;102061.34;1088134;54;20650;-80
2023/02/07 10:29:38;;;;;;;;;;;;;;;3.08;47.83;102068.16;1088192;54;19931;-80
2023/02/07 10:30:48;;;;;;;;;;;;;;;3.32;47.77;102063.00;1088264;54;19923;-81
2023/02/07 10:31:53;;;;;;;;;;;;;;;3.09;46.99;102072.53;1090177;39;20416;-80
2023/02/07 10:33:01;;;;;;;;;;;;;;;2.94;47.31;102069.44;1088226;54;19943;-81
2023/02/07 10:34:12;;;;;;;;;;;;;;;2.77;47.70;102062.03;1088676;39;20444;-81
2023/02/07 10:35:18;;;;;;;;;;;;;;;2.57;48.23;102067.03;1088184;54;19927;-81
2023/02/07 10:36:19;;;;;;;;;;;;;;;2.47;48.40;102061.13;1088223;54;19950;-80
2023/02/07 10:37:24;;;;;;;;;;;;;;;2.54;48.67;102065.34;1088139;54;19950;-81
2023/02/07 10:38:29;;;;;;;;;;;;;;;2.63;48.02;102065.06;1088268;54;19942;-80
2023/02/07 10:39:35;;;;;;;;;;;;;;;2.78;48.11;102068.16;1088161;54;19950;-80
2023/02/07 10:40:44;;;;;;;;;;;;;;;2.65;47.57;102068.50;1088242;54;19949;-81
2023/02/07 10:41:45;;;;;;;;;;;;;;;2.56;47.54;102063.50;1088273;54;19974;-81
2023/02/07 10:42:50;;;;;;;;;;;;;;;2.62;47.84;102063.34;1088197;54;19943;-80
2023/02/07 10:43:52;;;;;;;;;;;;;;;2.46;48.02;102067.31;1088213;54;19943;-80
2023/02/07 10:44:55;;;;;;;;;;;;;;;2.57;48.01;102070.50;1088250;54;19947;-81
2023/02/07 10:46:05;;;;;;;;;;;;;;;2.57;47.90;102065.22;1088229;54;19943;-80
2023/02/07 10:47:08;;;;;;;;;;;;;;;2.53;48.01;102053.03;1088210;54;19942;-80
2023/02/07 10:48:15;;;;;;;;;;;;;;;2.65;47.68;102063.22;1089770;46;19926;-81
2023/02/07 10:49:18;;;;;;;;;;;;;;;2.61;47.99;102066.88;1088216;54;19942;-80
2023/02/07 10:50:24;;;;;;;;;;;;;;;2.66;47.85;102064.13;1088080;54;19950;-81
2023/02/07 10:51:28;;;;;;;;;;;;;;;2.68;47.42;102071.97;1088081;54;19957;-81
2023/02/07 10:52:36;;;;;;;;;;;;;;;3.01;47.34;102069.28;1090395;46;19991;-80
2023/02/07 10:53:44;;;;;;;;;;;;;;;3.23;46.67;102061.53;1088062;54;19939;-81
2023/02/07 10:54:55;;;;;;;;;;;;;;;3.31;46.08;102056.03;1087943;54;20165;-80
2023/02/07 10:55:58;;;;;;;;;;;;;;;3.12;46.21;102057.47;1088207;46;19946;-80
2023/02/07 10:57:04;;;;;;;;;;;;;;;3.04;46.65;102053.31;1087810;54;19970;-80
2023/02/07 10:58:08;;;;;;;;;;;;;;;3.07;46.57;102051.44;1087871;54;19966;-81
2023/02/07 10:59:23;;;;;;;;;;;;;;;3.24;46.70;102053.56;1087951;46;19942;-80
2023/02/07 11:00:28;;;;;;;;;;;;;;;3.37;46.96;102053.19;1087754;54;19931;-80
2023/02/07 11:01:33;;;;;;;;;;;;;;;3.59;45.87;102054.19;1087580;54;19951;-81
2023/02/07 11:02:47;;;;;;;;;;;;;;;3.52;45.24;102055.31;1088101;46;19958;-81
2023/02/07 11:03:52;;;;;;;;;;;;;;;3.31;45.72;102053.38;1090701;46;20019;-81
2023/02/07 11:04:53;;;;;;;;;;;;;;;3.33;45.41;102055.06;1088068;54;19938;-81
2023/02/07 11:05:58;;;;;;;;;;;;;;;3.26;45.55;102046.44;1088078;47;19927;-81
2023/02/07 11:07:00;;;;;;;;;;;;;;;3.32;45.77;102047.16;1088156;54;19977;-82
2023/02/07 11:08:06;;;;;;;;;;;;;;;3.43;45.41;102047.69;1087881;54;19946;-82
2023/02/07 11:09:14;;;;;;;;;;;;;;;3.47;45.38;102043.16;1087980;54;20342;-82
2023/02/07 11:10:16;;;;;;;;;;;;;;;3.56;45.38;102048.16;1087579;47;20590;-81
2023/02/07 11:11:27;;;;;;;;;;;;;;;3.51;45.31;102039.50;1087612;54;19949;-81
2023/02/07 11:12:31;;;;;;;;;;;;;;;3.62;45.01;102045.31;1086850;54;19938;-81
2023/02/07 11:13:46;;;;;;;;;;;;;;;3.53;45.30;102051.75;1087000;54;19943;-79
2023/02/07 11:14:58;;;;;;;;;;;;;;;3.57;45.67;102048.13;1086855;54;19945;-81
2023/02/07 11:16:03;;;;;;;;;;;;;;;3.76;45.16;102034.28;1086926;54;19962;-79
2023/02/07 11:17:09;;;;;;;;;;;;;;;3.80;44.82;102041.16;1087041;54;19946;-80
2023/02/07 11:18:22;;;;;;;;;;;;;;;3.59;44.68;102042.75;1087773;54;19942;-83
2023/02/07 11:19:27;;;;;;;;;;;;;;;3.35;45.08;102041.78;1088196;54;19983;-80
2023/02/07 11:20:29;;;;;;;;;;;;;;;3.01;45.65;102042.84;1088085;54;19943;-79
2023/02/07 11:21:36;;;;;;;;;;;;;;;2.84;45.56;102048.63;1088179;54;19949;-80